sensor_id;sensor_type;location;lat;lon;timestamp;P1;durP1;ratioP1;P2;durP2;ratioP2
739;SDS011;354;42.694;23.336;2022-07-06T00:01:59;26.40;;;24.10;;
739;SDS011;354;42.694;23.336;2022-07-06T00:04:24;24.73;;;22.73;;
739;SDS011;354;42.694;23.336;2022-07-06T00:06:50;26.30;;;23.77;;
739;SDS011;354;42.694;23.336;2022-07-06T00:09:15;25.70;;;23.52;;
739;SDS011;354;42.694;23.336;2022-07-06T00:11:40;25.00;;;22.70;;
739;SDS011;354;42.694;23.336;2022-07-06T00:14:06;26.65;;;24.08;;
739;SDS011;354;42.694;23.336;2022-07-06T00:16:32;25.97;;;23.27;;
739;SDS011;354;42.694;23.336;2022-07-06T00:18:57;26.40;;;23.77;;
739;SDS011;354;42.694;23.336;2022-07-06T00:21:22;24.13;;;21.83;;
739;SDS011;354;42.694;23.336;2022-07-06T00:23:48;25.93;;;23.27;;
739;SDS011;354;42.694;23.336;2022-07-06T00:26:13;24.53;;;22.23;;
739;SDS011;354;42.694;23.336;2022-07-06T00:28:39;24.30;;;22.00;;
739;SDS011;354;42.694;23.336;2022-07-06T00:31:04;24.67;;;22.10;;
739;SDS011;354;42.694;23.336;2022-07-06T00:33:30;26.20;;;23.73;;
739;SDS011;354;42.694;23.336;2022-07-06T00:35:56;27.67;;;25.00;;
739;SDS011;354;42.694;23.336;2022-07-06T00:38:21;27.13;;;24.63;;
739;SDS011;354;42.694;23.336;2022-07-06T00:40:47;28.83;;;26.03;;
739;SDS011;354;42.694;23.336;2022-07-06T00:43:12;27.40;;;24.60;;
739;SDS011;354;42.694;23.336;2022-07-06T00:45:38;30.67;;;27.67;;
739;SDS011;354;42.694;23.336;2022-07-06T00:48:03;29.63;;;26.73;;
739;SDS011;354;42.694;23.336;2022-07-06T00:50:29;28.23;;;25.63;;
739;SDS011;354;42.694;23.336;2022-07-06T00:52:56;28.43;;;25.73;;
739;SDS011;354;42.694;23.336;2022-07-06T00:55:25;28.57;;;25.97;;
739;SDS011;354;42.694;23.336;2022-07-06T00:57:52;29.47;;;26.17;;
739;SDS011;354;42.694;23.336;2022-07-06T01:00:19;26.60;;;24.03;;
739;SDS011;354;42.694;23.336;2022-07-06T01:02:46;26.27;;;23.73;;
739;SDS011;354;42.694;23.336;2022-07-06T01:05:13;25.73;;;23.30;;
739;SDS011;354;42.694;23.336;2022-07-06T01:07:40;25.67;;;23.33;;
739;SDS011;354;42.694;23.336;2022-07-06T01:10:07;28.03;;;25.23;;
739;SDS011;354;42.694;23.336;2022-07-06T01:12:34;28.07;;;25.40;;
739;SDS011;354;42.694;23.336;2022-07-06T01:15:02;29.97;;;26.97;;
739;SDS011;354;42.694;23.336;2022-07-06T01:17:28;32.60;;;29.37;;
739;SDS011;354;42.694;23.336;2022-07-06T01:19:54;27.17;;;24.60;;
739;SDS011;354;42.694;23.336;2022-07-06T01:22:20;29.57;;;26.87;;
739;SDS011;354;42.694;23.336;2022-07-06T01:24:45;32.33;;;29.03;;
739;SDS011;354;42.694;23.336;2022-07-06T01:27:11;33.33;;;29.93;;
739;SDS011;354;42.694;23.336;2022-07-06T01:29:36;34.67;;;31.27;;
739;SDS011;354;42.694;23.336;2022-07-06T01:32:02;34.77;;;31.27;;
739;SDS011;354;42.694;23.336;2022-07-06T01:34:27;35.33;;;31.60;;
739;SDS011;354;42.694;23.336;2022-07-06T01:36:53;36.93;;;33.27;;
739;SDS011;354;42.694;23.336;2022-07-06T01:39:19;35.83;;;32.17;;
739;SDS011;354;42.694;23.336;2022-07-06T01:41:45;35.10;;;31.47;;
739;SDS011;354;42.694;23.336;2022-07-06T01:44:11;36.90;;;33.27;;
739;SDS011;354;42.694;23.336;2022-07-06T01:46:37;36.40;;;32.50;;
739;SDS011;354;42.694;23.336;2022-07-06T01:49:03;30.10;;;27.17;;
739;SDS011;354;42.694;23.336;2022-07-06T01:51:29;29.10;;;26.20;;
739;SDS011;354;42.694;23.336;2022-07-06T01:53:55;27.23;;;24.63;;
739;SDS011;354;42.694;23.336;2022-07-06T01:56:21;26.17;;;23.77;;
739;SDS011;354;42.694;23.336;2022-07-06T01:58:46;25.00;;;22.80;;
739;SDS011;354;42.694;23.336;2022-07-06T02:01:14;25.30;;;22.90;;
739;SDS011;354;42.694;23.336;2022-07-06T02:03:41;24.17;;;21.97;;
739;SDS011;354;42.694;23.336;2022-07-06T02:06:07;23.70;;;21.57;;
739;SDS011;354;42.694;23.336;2022-07-06T02:08:33;23.80;;;21.63;;
739;SDS011;354;42.694;23.336;2022-07-06T02:10:59;22.67;;;20.77;;
739;SDS011;354;42.694;23.336;2022-07-06T02:13:25;23.50;;;21.33;;
739;SDS011;354;42.694;23.336;2022-07-06T02:15:51;22.63;;;20.63;;
739;SDS011;354;42.694;23.336;2022-07-06T02:18:16;24.17;;;21.87;;
739;SDS011;354;42.694;23.336;2022-07-06T02:20:42;22.53;;;20.53;;
739;SDS011;354;42.694;23.336;2022-07-06T02:23:07;21.53;;;19.77;;
739;SDS011;354;42.694;23.336;2022-07-06T02:25:32;23.47;;;21.43;;
739;SDS011;354;42.694;23.336;2022-07-06T02:27:58;22.33;;;20.43;;
739;SDS011;354;42.694;23.336;2022-07-06T02:30:23;23.00;;;21.00;;
739;SDS011;354;42.694;23.336;2022-07-06T02:32:49;23.47;;;21.27;;
739;SDS011;354;42.694;23.336;2022-07-06T02:35:14;22.20;;;20.23;;
739;SDS011;354;42.694;23.336;2022-07-06T02:37:39;22.63;;;20.73;;
739;SDS011;354;42.694;23.336;2022-07-06T02:40:05;22.30;;;20.37;;
739;SDS011;354;42.694;23.336;2022-07-06T02:42:31;23.83;;;21.73;;
739;SDS011;354;42.694;23.336;2022-07-06T02:44:56;23.10;;;20.93;;
739;SDS011;354;42.694;23.336;2022-07-06T02:47:22;22.73;;;20.50;;
739;SDS011;354;42.694;23.336;2022-07-06T02:49:47;22.70;;;20.80;;
739;SDS011;354;42.694;23.336;2022-07-06T02:52:13;23.33;;;21.23;;
739;SDS011;354;42.694;23.336;2022-07-06T02:54:38;23.57;;;21.50;;
739;SDS011;354;42.694;23.336;2022-07-06T02:57:03;23.00;;;20.83;;
739;SDS011;354;42.694;23.336;2022-07-06T02:59:29;22.33;;;20.43;;
739;SDS011;354;42.694;23.336;2022-07-06T03:01:54;22.90;;;21.00;;
739;SDS011;354;42.694;23.336;2022-07-06T03:04:20;23.37;;;21.47;;
739;SDS011;354;42.694;23.336;2022-07-06T03:06:45;23.17;;;21.07;;
739;SDS011;354;42.694;23.336;2022-07-06T03:09:10;22.57;;;20.67;;
739;SDS011;354;42.694;23.336;2022-07-06T03:11:36;21.33;;;19.47;;
739;SDS011;354;42.694;23.336;2022-07-06T03:14:04;22.20;;;20.17;;
739;SDS011;354;42.694;23.336;2022-07-06T03:16:30;22.73;;;20.70;;
739;SDS011;354;42.694;23.336;2022-07-06T03:18:56;23.63;;;21.67;;
739;SDS011;354;42.694;23.336;2022-07-06T03:21:22;25.23;;;23.03;;
739;SDS011;354;42.694;23.336;2022-07-06T03:23:48;24.83;;;22.60;;
739;SDS011;354;42.694;23.336;2022-07-06T03:26:14;24.17;;;22.03;;
739;SDS011;354;42.694;23.336;2022-07-06T03:28:39;22.40;;;20.40;;
739;SDS011;354;42.694;23.336;2022-07-06T03:31:04;20.73;;;18.90;;
739;SDS011;354;42.694;23.336;2022-07-06T03:33:30;21.77;;;20.07;;
739;SDS011;354;42.694;23.336;2022-07-06T03:35:55;21.73;;;19.80;;
739;SDS011;354;42.694;23.336;2022-07-06T03:38:20;21.87;;;19.83;;
739;SDS011;354;42.694;23.336;2022-07-06T03:40:46;23.13;;;21.10;;
739;SDS011;354;42.694;23.336;2022-07-06T03:43:11;22.83;;;20.67;;
739;SDS011;354;42.694;23.336;2022-07-06T03:45:37;23.37;;;20.90;;
739;SDS011;354;42.694;23.336;2022-07-06T03:48:03;23.60;;;21.60;;
739;SDS011;354;42.694;23.336;2022-07-06T03:50:28;24.20;;;21.93;;
739;SDS011;354;42.694;23.336;2022-07-06T03:52:54;22.47;;;20.47;;
739;SDS011;354;42.694;23.336;2022-07-06T03:55:19;23.40;;;21.00;;
739;SDS011;354;42.694;23.336;2022-07-06T03:57:45;24.73;;;22.53;;
739;SDS011;354;42.694;23.336;2022-07-06T04:00:10;21.07;;;19.23;;
739;SDS011;354;42.694;23.336;2022-07-06T04:02:36;19.13;;;17.47;;
739;SDS011;354;42.694;23.336;2022-07-06T04:05:02;43.40;;;39.07;;
739;SDS011;354;42.694;23.336;2022-07-06T04:07:27;18.10;;;16.70;;
739;SDS011;354;42.694;23.336;2022-07-06T04:09:52;20.07;;;18.47;;
739;SDS011;354;42.694;23.336;2022-07-06T04:12:18;19.23;;;17.43;;
739;SDS011;354;42.694;23.336;2022-07-06T04:14:43;18.10;;;16.50;;
739;SDS011;354;42.694;23.336;2022-07-06T04:17:09;19.03;;;17.43;;
739;SDS011;354;42.694;23.336;2022-07-06T04:19:52;18.37;;;16.60;;
739;SDS011;354;42.694;23.336;2022-07-06T04:22:18;17.53;;;16.03;;
739;SDS011;354;42.694;23.336;2022-07-06T04:24:43;19.95;;;17.83;;
739;SDS011;354;42.694;23.336;2022-07-06T04:27:08;28.35;;;25.52;;
739;SDS011;354;42.694;23.336;2022-07-06T04:29:34;16.65;;;15.10;;
739;SDS011;354;42.694;23.336;2022-07-06T04:31:59;14.57;;;13.30;;
739;SDS011;354;42.694;23.336;2022-07-06T04:34:25;15.52;;;13.90;;
739;SDS011;354;42.694;23.336;2022-07-06T04:36:50;15.55;;;14.13;;
739;SDS011;354;42.694;23.336;2022-07-06T04:39:15;14.85;;;13.43;;
739;SDS011;354;42.694;23.336;2022-07-06T04:41:41;15.20;;;13.82;;
739;SDS011;354;42.694;23.336;2022-07-06T04:44:06;14.30;;;13.13;;
739;SDS011;354;42.694;23.336;2022-07-06T04:46:32;14.02;;;12.82;;
739;SDS011;354;42.694;23.336;2022-07-06T04:48:57;14.70;;;13.27;;
739;SDS011;354;42.694;23.336;2022-07-06T04:51:22;13.73;;;12.40;;
739;SDS011;354;42.694;23.336;2022-07-06T04:53:48;14.25;;;13.15;;
739;SDS011;354;42.694;23.336;2022-07-06T04:56:13;14.40;;;13.13;;
739;SDS011;354;42.694;23.336;2022-07-06T04:58:38;13.70;;;12.45;;
739;SDS011;354;42.694;23.336;2022-07-06T05:01:04;14.45;;;13.07;;
739;SDS011;354;42.694;23.336;2022-07-06T05:03:29;15.40;;;13.95;;
739;SDS011;354;42.694;23.336;2022-07-06T05:05:54;13.88;;;12.68;;
739;SDS011;354;42.694;23.336;2022-07-06T05:08:20;14.35;;;12.95;;
739;SDS011;354;42.694;23.336;2022-07-06T05:10:47;16.58;;;15.15;;
739;SDS011;354;42.694;23.336;2022-07-06T05:13:13;19.52;;;16.77;;
739;SDS011;354;42.694;23.336;2022-07-06T05:15:38;16.88;;;15.32;;
739;SDS011;354;42.694;23.336;2022-07-06T05:18:04;15.88;;;14.32;;
739;SDS011;354;42.694;23.336;2022-07-06T05:20:29;17.80;;;16.17;;
739;SDS011;354;42.694;23.336;2022-07-06T05:22:55;19.08;;;17.40;;
739;SDS011;354;42.694;23.336;2022-07-06T05:25:20;18.48;;;16.60;;
739;SDS011;354;42.694;23.336;2022-07-06T05:27:46;18.48;;;16.48;;
739;SDS011;354;42.694;23.336;2022-07-06T05:30:12;17.08;;;15.43;;
739;SDS011;354;42.694;23.336;2022-07-06T05:32:37;17.77;;;16.08;;
739;SDS011;354;42.694;23.336;2022-07-06T05:35:03;15.23;;;13.88;;
739;SDS011;354;42.694;23.336;2022-07-06T05:37:29;16.92;;;15.32;;
739;SDS011;354;42.694;23.336;2022-07-06T05:39:54;16.10;;;14.48;;
739;SDS011;354;42.694;23.336;2022-07-06T05:42:19;16.17;;;14.30;;
739;SDS011;354;42.694;23.336;2022-07-06T05:44:45;14.80;;;13.40;;
739;SDS011;354;42.694;23.336;2022-07-06T05:47:10;15.23;;;13.73;;
739;SDS011;354;42.694;23.336;2022-07-06T05:49:54;16.50;;;14.77;;
739;SDS011;354;42.694;23.336;2022-07-06T05:52:38;16.25;;;14.70;;
739;SDS011;354;42.694;23.336;2022-07-06T05:55:04;15.93;;;14.43;;
739;SDS011;354;42.694;23.336;2022-07-06T05:57:30;15.88;;;14.48;;
739;SDS011;354;42.694;23.336;2022-07-06T05:59:56;15.65;;;14.27;;
739;SDS011;354;42.694;23.336;2022-07-06T06:02:21;15.45;;;13.90;;
739;SDS011;354;42.694;23.336;2022-07-06T06:04:47;15.75;;;14.30;;
739;SDS011;354;42.694;23.336;2022-07-06T06:07:12;17.25;;;15.45;;
739;SDS011;354;42.694;23.336;2022-07-06T06:09:37;17.33;;;15.50;;
739;SDS011;354;42.694;23.336;2022-07-06T06:12:03;17.00;;;15.38;;
739;SDS011;354;42.694;23.336;2022-07-06T06:14:28;16.75;;;15.23;;
739;SDS011;354;42.694;23.336;2022-07-06T06:16:54;17.10;;;15.48;;
739;SDS011;354;42.694;23.336;2022-07-06T06:19:19;16.95;;;15.38;;
739;SDS011;354;42.694;23.336;2022-07-06T06:21:44;17.45;;;15.68;;
739;SDS011;354;42.694;23.336;2022-07-06T06:24:11;17.77;;;16.23;;
739;SDS011;354;42.694;23.336;2022-07-06T06:26:36;17.90;;;16.00;;
739;SDS011;354;42.694;23.336;2022-07-06T06:29:01;17.08;;;15.43;;
739;SDS011;354;42.694;23.336;2022-07-06T06:31:27;16.30;;;14.85;;
739;SDS011;354;42.694;23.336;2022-07-06T06:33:52;16.25;;;14.82;;
739;SDS011;354;42.694;23.336;2022-07-06T06:36:18;17.67;;;15.93;;
739;SDS011;354;42.694;23.336;2022-07-06T06:38:44;17.42;;;15.75;;
739;SDS011;354;42.694;23.336;2022-07-06T06:41:09;17.02;;;15.43;;
739;SDS011;354;42.694;23.336;2022-07-06T06:43:34;17.42;;;15.82;;
739;SDS011;354;42.694;23.336;2022-07-06T06:46:00;17.58;;;15.73;;
739;SDS011;354;42.694;23.336;2022-07-06T06:48:25;17.02;;;15.48;;
739;SDS011;354;42.694;23.336;2022-07-06T06:50:50;16.33;;;14.35;;
739;SDS011;354;42.694;23.336;2022-07-06T06:53:16;16.23;;;14.63;;
739;SDS011;354;42.694;23.336;2022-07-06T06:55:41;16.17;;;14.68;;
739;SDS011;354;42.694;23.336;2022-07-06T06:58:07;16.67;;;15.20;;
739;SDS011;354;42.694;23.336;2022-07-06T07:00:33;16.45;;;14.55;;
739;SDS011;354;42.694;23.336;2022-07-06T07:02:58;16.17;;;14.63;;
739;SDS011;354;42.694;23.336;2022-07-06T07:05:24;15.68;;;14.30;;
739;SDS011;354;42.694;23.336;2022-07-06T07:07:49;15.50;;;14.20;;
739;SDS011;354;42.694;23.336;2022-07-06T07:10:15;15.10;;;13.80;;
739;SDS011;354;42.694;23.336;2022-07-06T07:12:47;15.77;;;14.57;;
739;SDS011;354;42.694;23.336;2022-07-06T07:15:13;18.02;;;16.23;;
739;SDS011;354;42.694;23.336;2022-07-06T07:17:39;16.33;;;14.85;;
739;SDS011;354;42.694;23.336;2022-07-06T07:20:06;17.40;;;15.85;;
739;SDS011;354;42.694;23.336;2022-07-06T07:22:32;17.45;;;15.85;;
739;SDS011;354;42.694;23.336;2022-07-06T07:24:57;17.38;;;15.98;;
739;SDS011;354;42.694;23.336;2022-07-06T07:27:24;17.02;;;15.63;;
739;SDS011;354;42.694;23.336;2022-07-06T07:29:50;17.10;;;15.73;;
739;SDS011;354;42.694;23.336;2022-07-06T07:32:15;18.58;;;16.75;;
739;SDS011;354;42.694;23.336;2022-07-06T07:34:41;17.60;;;16.08;;
739;SDS011;354;42.694;23.336;2022-07-06T07:37:06;18.35;;;16.55;;
739;SDS011;354;42.694;23.336;2022-07-06T07:39:31;18.45;;;16.80;;
739;SDS011;354;42.694;23.336;2022-07-06T07:41:57;18.35;;;16.80;;
739;SDS011;354;42.694;23.336;2022-07-06T07:44:22;17.02;;;15.60;;
739;SDS011;354;42.694;23.336;2022-07-06T07:46:49;17.45;;;15.88;;
739;SDS011;354;42.694;23.336;2022-07-06T07:49:15;16.15;;;14.75;;
739;SDS011;354;42.694;23.336;2022-07-06T07:51:40;16.73;;;15.23;;
739;SDS011;354;42.694;23.336;2022-07-06T07:54:06;18.45;;;16.77;;
739;SDS011;354;42.694;23.336;2022-07-06T07:56:32;17.10;;;15.50;;
739;SDS011;354;42.694;23.336;2022-07-06T07:58:57;16.13;;;14.80;;
739;SDS011;354;42.694;23.336;2022-07-06T08:01:22;15.52;;;14.23;;
739;SDS011;354;42.694;23.336;2022-07-06T08:03:48;15.95;;;14.63;;
739;SDS011;354;42.694;23.336;2022-07-06T08:06:13;16.70;;;15.27;;
739;SDS011;354;42.694;23.336;2022-07-06T08:08:38;15.75;;;14.55;;
739;SDS011;354;42.694;23.336;2022-07-06T08:11:04;17.42;;;15.95;;
739;SDS011;354;42.694;23.336;2022-07-06T08:13:29;17.42;;;16.05;;
739;SDS011;354;42.694;23.336;2022-07-06T08:15:55;16.90;;;15.52;;
739;SDS011;354;42.694;23.336;2022-07-06T08:18:20;14.80;;;13.57;;
739;SDS011;354;42.694;23.336;2022-07-06T08:20:45;16.00;;;14.60;;
739;SDS011;354;42.694;23.336;2022-07-06T08:23:11;23.45;;;21.35;;
739;SDS011;354;42.694;23.336;2022-07-06T08:25:36;17.10;;;15.48;;
739;SDS011;354;42.694;23.336;2022-07-06T08:28:01;18.63;;;16.85;;
739;SDS011;354;42.694;23.336;2022-07-06T08:30:27;18.63;;;17.02;;
739;SDS011;354;42.694;23.336;2022-07-06T08:32:52;16.75;;;15.13;;
739;SDS011;354;42.694;23.336;2022-07-06T08:35:18;16.63;;;15.18;;
739;SDS011;354;42.694;23.336;2022-07-06T08:37:44;17.90;;;16.08;;
739;SDS011;354;42.694;23.336;2022-07-06T08:40:10;16.98;;;15.57;;
739;SDS011;354;42.694;23.336;2022-07-06T08:42:36;16.73;;;14.88;;
739;SDS011;354;42.694;23.336;2022-07-06T08:45:03;17.83;;;16.05;;
739;SDS011;354;42.694;23.336;2022-07-06T08:47:30;16.33;;;14.68;;
739;SDS011;354;42.694;23.336;2022-07-06T08:49:56;16.08;;;14.57;;
739;SDS011;354;42.694;23.336;2022-07-06T08:52:22;19.15;;;17.45;;
739;SDS011;354;42.694;23.336;2022-07-06T08:54:49;16.08;;;14.77;;
739;SDS011;354;42.694;23.336;2022-07-06T08:57:14;15.15;;;13.75;;
739;SDS011;354;42.694;23.336;2022-07-06T08:59:40;17.40;;;15.93;;
739;SDS011;354;42.694;23.336;2022-07-06T09:02:05;17.05;;;15.55;;
739;SDS011;354;42.694;23.336;2022-07-06T09:04:32;15.93;;;14.43;;
739;SDS011;354;42.694;23.336;2022-07-06T09:06:58;17.17;;;15.63;;
739;SDS011;354;42.694;23.336;2022-07-06T09:09:24;14.93;;;13.82;;
739;SDS011;354;42.694;23.336;2022-07-06T09:11:50;16.17;;;14.88;;
739;SDS011;354;42.694;23.336;2022-07-06T09:14:16;16.80;;;15.35;;
739;SDS011;354;42.694;23.336;2022-07-06T09:16:43;17.73;;;16.23;;
739;SDS011;354;42.694;23.336;2022-07-06T09:19:11;17.35;;;15.70;;
739;SDS011;354;42.694;23.336;2022-07-06T09:21:37;16.75;;;15.35;;
739;SDS011;354;42.694;23.336;2022-07-06T09:24:10;16.63;;;15.30;;
739;SDS011;354;42.694;23.336;2022-07-06T09:26:37;17.38;;;15.73;;
739;SDS011;354;42.694;23.336;2022-07-06T09:29:04;18.30;;;16.70;;
739;SDS011;354;42.694;23.336;2022-07-06T09:31:31;16.75;;;15.40;;
739;SDS011;354;42.694;23.336;2022-07-06T09:34:00;17.75;;;16.08;;
739;SDS011;354;42.694;23.336;2022-07-06T09:36:36;16.23;;;14.73;;
739;SDS011;354;42.694;23.336;2022-07-06T09:39:15;16.17;;;14.85;;
739;SDS011;354;42.694;23.336;2022-07-06T09:41:44;17.13;;;15.82;;
739;SDS011;354;42.694;23.336;2022-07-06T09:44:11;17.38;;;15.93;;
739;SDS011;354;42.694;23.336;2022-07-06T09:46:41;21.38;;;19.58;;
739;SDS011;354;42.694;23.336;2022-07-06T09:49:07;18.35;;;16.55;;
739;SDS011;354;42.694;23.336;2022-07-06T09:51:36;17.92;;;16.23;;
739;SDS011;354;42.694;23.336;2022-07-06T09:54:09;17.50;;;15.95;;
739;SDS011;354;42.694;23.336;2022-07-06T09:59:16;18.83;;;17.23;;
739;SDS011;354;42.694;23.336;2022-07-06T10:01:46;18.70;;;16.75;;
739;SDS011;354;42.694;23.336;2022-07-06T10:04:15;18.50;;;16.80;;
739;SDS011;354;42.694;23.336;2022-07-06T10:06:43;20.27;;;18.48;;
739;SDS011;354;42.694;23.336;2022-07-06T10:09:10;19.35;;;17.65;;
739;SDS011;354;42.694;23.336;2022-07-06T10:11:40;20.38;;;18.48;;
739;SDS011;354;42.694;23.336;2022-07-06T10:14:08;17.92;;;16.23;;
739;SDS011;354;42.694;23.336;2022-07-06T10:16:37;20.15;;;18.23;;
739;SDS011;354;42.694;23.336;2022-07-06T10:19:06;18.40;;;16.55;;
739;SDS011;354;42.694;23.336;2022-07-06T10:21:36;19.35;;;17.65;;
739;SDS011;354;42.694;23.336;2022-07-06T10:24:04;21.10;;;19.05;;
739;SDS011;354;42.694;23.336;2022-07-06T10:26:32;18.77;;;17.10;;
739;SDS011;354;42.694;23.336;2022-07-06T10:28:58;20.55;;;18.52;;
739;SDS011;354;42.694;23.336;2022-07-06T10:31:25;18.98;;;17.38;;
739;SDS011;354;42.694;23.336;2022-07-06T10:33:53;18.40;;;16.80;;
739;SDS011;354;42.694;23.336;2022-07-06T10:36:20;16.88;;;15.57;;
739;SDS011;354;42.694;23.336;2022-07-06T10:38:46;19.45;;;17.65;;
739;SDS011;354;42.694;23.336;2022-07-06T10:41:15;19.33;;;17.48;;
739;SDS011;354;42.694;23.336;2022-07-06T10:43:44;18.38;;;16.88;;
739;SDS011;354;42.694;23.336;2022-07-06T10:46:15;19.17;;;17.40;;
739;SDS011;354;42.694;23.336;2022-07-06T10:48:46;17.27;;;15.80;;
739;SDS011;354;42.694;23.336;2022-07-06T10:51:22;16.27;;;15.07;;
739;SDS011;354;42.694;23.336;2022-07-06T10:53:55;18.17;;;16.38;;
739;SDS011;354;42.694;23.336;2022-07-06T10:56:31;19.67;;;17.98;;
739;SDS011;354;42.694;23.336;2022-07-06T10:59:01;21.35;;;19.55;;
739;SDS011;354;42.694;23.336;2022-07-06T11:01:40;21.92;;;19.95;;
739;SDS011;354;42.694;23.336;2022-07-06T11:04:06;24.85;;;22.42;;
739;SDS011;354;42.694;23.336;2022-07-06T11:06:33;19.67;;;17.75;;
739;SDS011;354;42.694;23.336;2022-07-06T11:09:03;19.55;;;17.77;;
739;SDS011;354;42.694;23.336;2022-07-06T11:14:01;16.10;;;14.75;;
739;SDS011;354;42.694;23.336;2022-07-06T11:16:33;16.63;;;15.30;;
739;SDS011;354;42.694;23.336;2022-07-06T11:19:03;21.45;;;19.52;;
739;SDS011;354;42.694;23.336;2022-07-06T11:21:47;21.08;;;19.33;;
739;SDS011;354;42.694;23.336;2022-07-06T11:24:17;21.02;;;19.27;;
739;SDS011;354;42.694;23.336;2022-07-06T11:26:45;22.50;;;20.67;;
739;SDS011;354;42.694;23.336;2022-07-06T11:29:12;31.50;;;28.40;;
739;SDS011;354;42.694;23.336;2022-07-06T11:31:40;20.83;;;18.83;;
739;SDS011;354;42.694;23.336;2022-07-06T11:34:10;20.27;;;18.38;;
739;SDS011;354;42.694;23.336;2022-07-06T11:36:38;19.15;;;17.55;;
739;SDS011;354;42.694;23.336;2022-07-06T11:39:03;18.13;;;16.52;;
739;SDS011;354;42.694;23.336;2022-07-06T11:41:32;19.00;;;17.30;;
739;SDS011;354;42.694;23.336;2022-07-06T11:43:58;18.50;;;17.00;;
739;SDS011;354;42.694;23.336;2022-07-06T11:46:27;19.23;;;17.55;;
739;SDS011;354;42.694;23.336;2022-07-06T11:51:30;20.60;;;18.90;;
739;SDS011;354;42.694;23.336;2022-07-06T11:53:58;18.67;;;17.08;;
739;SDS011;354;42.694;23.336;2022-07-06T11:56:25;20.15;;;18.45;;
739;SDS011;354;42.694;23.336;2022-07-06T11:58:53;21.48;;;19.58;;
739;SDS011;354;42.694;23.336;2022-07-06T12:01:20;19.10;;;17.60;;
739;SDS011;354;42.694;23.336;2022-07-06T12:03:48;19.95;;;18.40;;
739;SDS011;354;42.694;23.336;2022-07-06T12:06:23;19.75;;;18.13;;
739;SDS011;354;42.694;23.336;2022-07-06T12:08:50;17.15;;;15.80;;
739;SDS011;354;42.694;23.336;2022-07-06T12:11:20;19.63;;;18.02;;
739;SDS011;354;42.694;23.336;2022-07-06T12:13:58;18.67;;;16.98;;
739;SDS011;354;42.694;23.336;2022-07-06T12:16:31;16.95;;;15.55;;
739;SDS011;354;42.694;23.336;2022-07-06T12:18:59;16.52;;;14.85;;
739;SDS011;354;42.694;23.336;2022-07-06T12:21:26;17.00;;;15.75;;
739;SDS011;354;42.694;23.336;2022-07-06T12:23:53;16.92;;;15.60;;
739;SDS011;354;42.694;23.336;2022-07-06T12:26:20;17.77;;;16.38;;
739;SDS011;354;42.694;23.336;2022-07-06T12:29:01;16.48;;;15.18;;
739;SDS011;354;42.694;23.336;2022-07-06T12:31:39;18.13;;;16.63;;
739;SDS011;354;42.694;23.336;2022-07-06T12:34:05;19.35;;;17.65;;
739;SDS011;354;42.694;23.336;2022-07-06T12:36:43;36.65;;;27.20;;
739;SDS011;354;42.694;23.336;2022-07-06T12:39:11;17.17;;;15.55;;
739;SDS011;354;42.694;23.336;2022-07-06T12:41:41;15.60;;;13.95;;
739;SDS011;354;42.694;23.336;2022-07-06T12:44:09;15.75;;;14.40;;
739;SDS011;354;42.694;23.336;2022-07-06T12:46:36;14.70;;;13.60;;
739;SDS011;354;42.694;23.336;2022-07-06T12:49:16;15.93;;;14.57;;
739;SDS011;354;42.694;23.336;2022-07-06T12:54:48;14.52;;;13.45;;
739;SDS011;354;42.694;23.336;2022-07-06T12:57:21;15.27;;;13.98;;
739;SDS011;354;42.694;23.336;2022-07-06T13:02:22;14.20;;;13.20;;
739;SDS011;354;42.694;23.336;2022-07-06T13:04:55;13.80;;;12.68;;
739;SDS011;354;42.694;23.336;2022-07-06T13:07:22;13.43;;;12.52;;
739;SDS011;354;42.694;23.336;2022-07-06T13:09:48;13.40;;;12.30;;
739;SDS011;354;42.694;23.336;2022-07-06T13:12:14;12.90;;;11.90;;
739;SDS011;354;42.694;23.336;2022-07-06T13:14:39;13.63;;;12.40;;
739;SDS011;354;42.694;23.336;2022-07-06T13:17:04;13.02;;;11.85;;
739;SDS011;354;42.694;23.336;2022-07-06T13:19:30;11.50;;;10.60;;
739;SDS011;354;42.694;23.336;2022-07-06T13:21:55;11.98;;;10.88;;
739;SDS011;354;42.694;23.336;2022-07-06T13:24:21;11.93;;;10.93;;
739;SDS011;354;42.694;23.336;2022-07-06T13:26:46;10.38;;;9.57;;
739;SDS011;354;42.694;23.336;2022-07-06T13:29:12;10.55;;;9.85;;
739;SDS011;354;42.694;23.336;2022-07-06T13:31:38;9.93;;;9.20;;
739;SDS011;354;42.694;23.336;2022-07-06T13:34:05;10.20;;;9.02;;
739;SDS011;354;42.694;23.336;2022-07-06T13:36:31;8.57;;;7.97;;
739;SDS011;354;42.694;23.336;2022-07-06T13:38:57;9.40;;;8.63;;
739;SDS011;354;42.694;23.336;2022-07-06T13:41:22;9.02;;;8.43;;
739;SDS011;354;42.694;23.336;2022-07-06T13:43:47;8.50;;;8.00;;
739;SDS011;354;42.694;23.336;2022-07-06T13:46:13;7.47;;;7.07;;
739;SDS011;354;42.694;23.336;2022-07-06T13:48:38;8.40;;;7.28;;
739;SDS011;354;42.694;23.336;2022-07-06T13:51:04;7.70;;;7.15;;
739;SDS011;354;42.694;23.336;2022-07-06T13:53:29;9.57;;;8.80;;
739;SDS011;354;42.694;23.336;2022-07-06T13:55:56;8.25;;;7.70;;
739;SDS011;354;42.694;23.336;2022-07-06T13:58:22;8.20;;;7.72;;
739;SDS011;354;42.694;23.336;2022-07-06T14:00:47;8.63;;;7.88;;
739;SDS011;354;42.694;23.336;2022-07-06T14:03:12;6.97;;;6.57;;
739;SDS011;354;42.694;23.336;2022-07-06T14:05:38;7.43;;;6.90;;
739;SDS011;354;42.694;23.336;2022-07-06T14:08:03;7.28;;;6.88;;
739;SDS011;354;42.694;23.336;2022-07-06T14:10:29;6.82;;;6.20;;
739;SDS011;354;42.694;23.336;2022-07-06T14:12:54;7.40;;;7.00;;
739;SDS011;354;42.694;23.336;2022-07-06T14:15:20;6.97;;;6.57;;
739;SDS011;354;42.694;23.336;2022-07-06T14:17:45;6.90;;;6.50;;
739;SDS011;354;42.694;23.336;2022-07-06T14:20:15;6.63;;;6.22;;
739;SDS011;354;42.694;23.336;2022-07-06T14:22:40;6.07;;;5.78;;
739;SDS011;354;42.694;23.336;2022-07-06T14:25:07;7.50;;;6.82;;
739;SDS011;354;42.694;23.336;2022-07-06T14:27:33;7.50;;;6.95;;
739;SDS011;354;42.694;23.336;2022-07-06T14:29:59;12.85;;;11.70;;
739;SDS011;354;42.694;23.336;2022-07-06T14:32:24;7.82;;;7.30;;
739;SDS011;354;42.694;23.336;2022-07-06T14:34:50;6.78;;;6.28;;
739;SDS011;354;42.694;23.336;2022-07-06T14:37:15;7.35;;;6.80;;
739;SDS011;354;42.694;23.336;2022-07-06T14:39:41;7.90;;;7.30;;
739;SDS011;354;42.694;23.336;2022-07-06T14:42:07;7.15;;;6.65;;
739;SDS011;354;42.694;23.336;2022-07-06T14:44:32;7.38;;;6.10;;
739;SDS011;354;42.694;23.336;2022-07-06T14:46:58;6.63;;;6.22;;
739;SDS011;354;42.694;23.336;2022-07-06T14:49:23;6.05;;;5.75;;
739;SDS011;354;42.694;23.336;2022-07-06T14:51:49;6.72;;;6.28;;
739;SDS011;354;42.694;23.336;2022-07-06T14:54:14;6.88;;;6.47;;
739;SDS011;354;42.694;23.336;2022-07-06T14:56:40;6.78;;;6.30;;
739;SDS011;354;42.694;23.336;2022-07-06T14:59:06;11.35;;;9.43;;
739;SDS011;354;42.694;23.336;2022-07-06T15:01:31;6.88;;;6.43;;
739;SDS011;354;42.694;23.336;2022-07-06T15:03:57;6.82;;;6.43;;
739;SDS011;354;42.694;23.336;2022-07-06T15:06:22;7.43;;;6.80;;
739;SDS011;354;42.694;23.336;2022-07-06T15:08:47;8.82;;;8.23;;
739;SDS011;354;42.694;23.336;2022-07-06T15:11:13;7.15;;;6.75;;
739;SDS011;354;42.694;23.336;2022-07-06T15:13:38;7.10;;;6.55;;
739;SDS011;354;42.694;23.336;2022-07-06T15:16:04;6.72;;;6.32;;